Terminal Aerodrome Forecast
Issued by NWS

Home | Current Version | Previous Version | Text Only | Print | Product List | Glossary On
Versions: 1 2 3 4 5 6 7 8 9 10 11 12 13 14 15 16 17 18 19 20 21 22 23
000
FTUS46 KLOX 231121
TAFSBA
TAF
KSBA 231121Z 2312/2412 12006KT 1SM BR OVC002
     FM231500 13006KT 3SM BR OVC006
     FM231700 17007KT P6SM BKN008
     FM232000 23008KT P6SM FEW010
     FM240200 VRB03KT P6SM SKC
     FM240700 VRB03KT 5SM BR OVC005=

USA.gov is the U.S. government's official web portal to all federal, state and local government web resources and services.